Time;durP1;ratioP1;P1;durP2;ratioP2;P2;SDS_P1;SDS_P2;PMS_P1;PMS_P2;Temp;Humidity;BMP_temperature;BMP_pressure;BME280_temperature;BME280_humidity;BME280_pressure;Samples;Min_cycle;Max_cycle;Signal;HPM_P1;HPM_P2
2021/11/16 00:02:08;;;;;;;;;;;18.70;74.00;;;;;;5074066;28;19915;-67
2021/11/16 00:04:35;;;;;;;;;;;18.80;74.00;;;;;;5074108;28;19908;-68
2021/11/16 00:07:02;;;;;;;;;;;18.90;72.10;;;;;;5073763;28;20339;-65
2021/11/16 00:09:29;;;;;;;;;;;18.80;72.80;;;;;;5073857;28;19995;-66
2021/11/16 00:11:56;;;;;;;;;;;19.00;74.50;;;;;;5073802;28;20259;-69
2021/11/16 00:14:22;;;;;;;;;;;19.30;72.80;;;;;;5073866;28;20057;-66
2021/11/16 00:16:49;;;;;;;;;;;19.10;73.10;;;;;;5074129;28;19932;-68
2021/11/16 00:19:16;;;;;;;;;;;19.30;72.80;;;;;;5073905;28;19920;-70
2021/11/16 00:21:44;;;;;;;;;;;19.20;71.80;;;;;;5072799;28;20680;-66
2021/11/16 00:24:14;;;;;;;;;;;19.40;72.20;;;;;;5073806;28;19909;-66
2021/11/16 00:26:41;;;;;;;;;;;19.70;71.70;;;;;;5073486;28;19930;-67
2021/11/16 00:29:08;;;;;;;;;;;20.00;72.50;;;;;;5073578;28;19920;-67
2021/11/16 00:31:35;;;;;;;;;;;20.20;71.50;;;;;;5073603;28;19908;-66
2021/11/16 00:34:02;;;;;;;;;;;20.30;69.80;;;;;;5073231;28;19992;-67
2021/11/16 00:36:29;;;;;;;;;;;20.70;70.20;;;;;;5073292;28;19962;-66
2021/11/16 00:38:56;;;;;;;;;;;20.80;70.60;;;;;;5073596;28;19931;-67
2021/11/16 00:41:23;;;;;;;;;;;20.90;70.10;;;;;;5073492;28;20270;-68
2021/11/16 00:43:50;;;;;;;;;;;21.00;68.60;;;;;;5073111;28;20358;-66
2021/11/16 00:46:17;;;;;;;;;;;20.90;69.80;;;;;;5073281;28;19981;-68
2021/11/16 00:48:44;;;;;;;;;;;20.90;69.60;;;;;;5073137;28;19917;-68
2021/11/16 00:51:11;;;;;;;;;;;21.30;68.90;;;;;;5073009;28;19908;-67
2021/11/16 00:53:38;;;;;;;;;;;22.00;67.40;;;;;;5073058;28;19915;-67
2021/11/16 00:56:06;;;;;;;;;;;21.90;68.30;;;;;;5072826;28;19913;-66
2021/11/16 00:58:33;;;;;;;;;;;22.00;67.80;;;;;;5072906;28;19917;-69
2021/11/16 01:01:00;;;;;;;;;;;21.90;66.60;;;;;;5073125;28;20286;-67
2021/11/16 01:03:27;;;;;;;;;;;21.70;66.50;;;;;;5073049;28;19999;-67
2021/11/16 01:05:54;;;;;;;;;;;22.00;67.70;;;;;;5072469;28;19909;-68
2021/11/16 01:08:25;;;;;;;;;;;22.20;70.50;;;;;;5071990;28;20440;-67
2021/11/16 01:10:52;;;;;;;;;;;22.30;72.80;;;;;;5072671;28;19948;-69
2021/11/16 01:13:20;;;;;;;;;;;22.20;73.60;;;;;;5072339;28;19935;-70
2021/11/16 01:15:48;;;;;;;;;;;22.20;75.60;;;;;;5072399;28;19934;-71
2021/11/16 01:18:15;;;;;;;;;;;22.00;74.20;;;;;;5072559;28;19934;-68
2021/11/16 01:20:42;;;;;;;;;;;21.50;77.30;;;;;;5072577;28;19909;-70
2021/11/16 01:23:10;;;;;;;;;;;21.20;78.40;;;;;;5072591;28;19908;-71
2021/11/16 01:25:38;;;;;;;;;;;20.80;79.20;;;;;;5072657;28;20286;-67
2021/11/16 01:28:11;;;;;;;;;;;20.40;81.80;;;;;;5072297;28;19923;-69
2021/11/16 01:30:38;;;;;;;;;;;20.50;84.00;;;;;;5072567;28;19916;-70
2021/11/16 01:33:11;;;;;;;;;;;20.60;85.40;;;;;;5072507;28;19909;-71
2021/11/16 01:35:39;;;;;;;;;;;20.60;85.80;;;;;;5072530;28;19908;-71
2021/11/16 01:38:07;;;;;;;;;;;20.30;85.70;;;;;;5072392;28;20001;-71
2021/11/16 01:40:34;;;;;;;;;;;20.30;85.90;;;;;;5064368;28;19912;-70
2021/11/16 01:43:03;;;;;;;;;;;20.30;86.40;;;;;;5054783;28;20359;-70
2021/11/16 01:45:30;;;;;;;;;;;19.90;86.10;;;;;;5052367;28;19908;-69
2021/11/16 01:47:56;;;;;;;;;;;19.80;87.20;;;;;;5051961;28;19912;-69
2021/11/16 01:50:23;;;;;;;;;;;19.70;87.70;;;;;;5052241;28;20008;-71
2021/11/16 01:52:51;;;;;;;;;;;19.70;87.20;;;;;;5052333;28;19927;-71
2021/11/16 01:55:19;;;;;;;;;;;19.50;86.40;;;;;;5052288;28;20015;-71
2021/11/16 01:57:46;;;;;;;;;;;19.40;87.30;;;;;;5052125;28;19919;-71
2021/11/16 02:00:15;;;;;;;;;;;19.60;88.80;;;;;;5052075;28;19929;-70
2021/11/16 02:02:42;;;;;;;;;;;19.70;87.00;;;;;;5052609;28;19923;-71
2021/11/16 02:05:09;;;;;;;;;;;19.40;86.50;;;;;;5052219;28;20371;-70
2021/11/16 02:07:35;;;;;;;;;;;19.30;87.20;;;;;;5052031;28;19916;-71
2021/11/16 02:10:02;;;;;;;;;;;19.30;85.90;;;;;;5052170;28;20407;-71
2021/11/16 02:12:29;;;;;;;;;;;19.30;86.20;;;;;;5052445;28;19909;-72
2021/11/16 02:14:56;;;;;;;;;;;19.40;86.10;;;;;;5052053;28;19909;-71
2021/11/16 02:17:22;;;;;;;;;;;19.40;85.30;;;;;;5052116;28;19940;-70
2021/11/16 02:19:50;;;;;;;;;;;19.30;86.40;;;;;;5051956;28;19916;-66
2021/11/16 02:22:17;;;;;;;;;;;19.10;87.30;;;;;;5051885;28;19944;-70
2021/11/16 02:24:43;;;;;;;;;;;19.10;86.40;;;;;;5052055;28;19909;-71
2021/11/16 02:27:10;;;;;;;;;;;19.00;87.50;;;;;;5051974;28;20349;-69
2021/11/16 02:29:37;;;;;;;;;;;19.20;85.50;;;;;;5052403;28;19921;-71
2021/11/16 02:32:04;;;;;;;;;;;19.10;85.50;;;;;;5051772;28;19913;-71
2021/11/16 02:34:30;;;;;;;;;;;19.30;85.00;;;;;;5051891;28;19960;-72
2021/11/16 02:36:57;;;;;;;;;;;19.20;85.50;;;;;;5051679;28;20310;-72
2021/11/16 02:39:24;;;;;;;;;;;19.10;86.70;;;;;;5051845;28;20358;-71
2021/11/16 02:41:52;;;;;;;;;;;19.10;86.50;;;;;;5051609;28;20400;-72
2021/11/16 02:44:19;;;;;;;;;;;19.00;86.80;;;;;;5051989;28;19909;-71
2021/11/16 02:46:49;;;;;;;;;;;19.00;85.10;;;;;;5055825;28;19909;-70
2021/11/16 02:49:16;;;;;;;;;;;19.00;84.50;;;;;;5055453;28;19923;-70
2021/11/16 02:51:43;;;;;;;;;;;18.90;86.90;;;;;;5055313;28;20320;-72
2021/11/16 02:54:11;;;;;;;;;;;18.80;87.30;;;;;;5055299;28;20075;-70
2021/11/16 02:56:38;;;;;;;;;;;19.00;87.20;;;;;;5055361;28;19913;-71
2021/11/16 02:59:05;;;;;;;;;;;19.10;86.40;;;;;;5055339;28;19996;-71
2021/11/16 03:01:32;;;;;;;;;;;19.00;86.50;;;;;;5055264;28;20212;-70
2021/11/16 03:03:58;;;;;;;;;;;19.10;86.50;;;;;;5055135;28;20428;-71
2021/11/16 03:06:25;;;;;;;;;;;19.10;86.60;;;;;;5055387;28;19908;-70
2021/11/16 03:08:52;;;;;;;;;;;18.90;86.40;;;;;;5055387;28;20016;-70
2021/11/16 03:11:19;;;;;;;;;;;18.80;86.20;;;;;;5055280;28;19916;-70
2021/11/16 03:13:46;;;;;;;;;;;18.70;85.20;;;;;;5055157;28;19909;-68
2021/11/16 03:16:15;;;;;;;;;;;18.80;86.20;;;;;;5055278;28;19909;-71
2021/11/16 03:18:48;;;;;;;;;;;18.90;86.10;;;;;;5054899;28;19908;-71
2021/11/16 03:21:16;;;;;;;;;;;18.90;86.90;;;;;;5054771;28;19966;-66
2021/11/16 03:23:45;;;;;;;;;;;19.10;87.50;;;;;;5070112;28;19916;-69
2021/11/16 03:26:13;;;;;;;;;;;19.10;86.50;;;;;;5055122;28;19909;-70
2021/11/16 03:28:42;;;;;;;;;;;19.10;85.80;;;;;;5054733;28;19920;-69
2021/11/16 03:31:18;;;;;;;;;;;18.90;86.60;;;;;;5054741;28;20259;-70
2021/11/16 03:33:44;;;;;;;;;;;18.90;87.70;;;;;;5054533;28;19913;-71
2021/11/16 03:36:12;;;;;;;;;;;18.70;86.80;;;;;;5054522;28;20263;-70
2021/11/16 03:38:40;;;;;;;;;;;18.90;87.00;;;;;;5054494;28;19909;-70
2021/11/16 03:41:07;;;;;;;;;;;18.90;86.60;;;;;;5054652;28;20438;-72
2021/11/16 03:43:34;;;;;;;;;;;18.80;87.10;;;;;;5054406;28;19908;-71
2021/11/16 03:46:01;;;;;;;;;;;18.60;87.20;;;;;;5054185;28;19909;-68
2021/11/16 03:48:28;;;;;;;;;;;18.50;87.50;;;;;;5054456;28;19924;-70
2021/11/16 03:50:55;;;;;;;;;;;18.40;88.40;;;;;;5054001;28;19934;-70
2021/11/16 03:53:22;;;;;;;;;;;18.60;88.40;;;;;;5054108;28;19915;-68
2021/11/16 03:55:49;;;;;;;;;;;18.50;88.80;;;;;;5053178;28;19913;-69
2021/11/16 03:58:20;;;;;;;;;;;18.70;88.80;;;;;;5053483;28;19908;-69
2021/11/16 04:01:00;;;;;;;;;;;18.70;88.70;;;;;;5054266;28;20422;-70
2021/11/16 04:03:29;;;;;;;;;;;18.80;86.80;;;;;;5054207;28;19917;-68
2021/11/16 04:05:56;;;;;;;;;;;18.70;87.80;;;;;;5053016;28;19951;-70
2021/11/16 04:08:22;;;;;;;;;;;18.80;87.40;;;;;;5053675;28;19926;-71
2021/11/16 04:10:50;;;;;;;;;;;18.80;87.30;;;;;;5053913;28;20001;-71
2021/11/16 04:13:17;;;;;;;;;;;18.70;87.00;;;;;;5053730;28;19916;-71
2021/11/16 04:15:46;;;;;;;;;;;18.70;86.80;;;;;;5053823;28;19909;-71
2021/11/16 04:18:14;;;;;;;;;;;18.80;85.50;;;;;;5053863;28;19955;-71
2021/11/16 04:20:41;;;;;;;;;;;18.60;86.50;;;;;;5053750;28;20003;-67
2021/11/16 04:23:10;;;;;;;;;;;18.70;86.60;;;;;;5053626;28;19909;-67
2021/11/16 04:25:38;;;;;;;;;;;18.70;86.50;;;;;;5053743;28;20027;-69
2021/11/16 04:28:05;;;;;;;;;;;18.60;86.10;;;;;;5053383;28;19963;-70
2021/11/16 04:30:32;;;;;;;;;;;18.60;86.00;;;;;;5053622;28;19917;-72
2021/11/16 04:32:59;;;;;;;;;;;18.60;84.80;;;;;;5053409;28;19962;-72
2021/11/16 04:35:26;;;;;;;;;;;18.50;85.30;;;;;;5053393;28;19909;-71
2021/11/16 04:37:54;;;;;;;;;;;18.50;86.40;;;;;;5053376;28;20318;-72
2021/11/16 04:40:26;;;;;;;;;;;18.50;85.70;;;;;;5053582;28;20415;-72
2021/11/16 04:42:56;;;;;;;;;;;18.40;86.10;;;;;;5053483;28;19909;-72
2021/11/16 04:45:24;;;;;;;;;;;18.50;86.90;;;;;;5053782;28;19909;-72
2021/11/16 05:03:20;;;;;;;;;;;18.40;86.20;;;;;;5072325;28;20304;-72
2021/11/16 05:05:46;;;;;;;;;;;18.40;86.00;;;;;;5072539;28;20372;-67
2021/11/16 05:08:15;;;;;;;;;;;18.40;86.40;;;;;;5072627;28;19917;-72
2021/11/16 05:10:42;;;;;;;;;;;18.30;86.30;;;;;;5072959;28;19915;-72
2021/11/16 05:13:08;;;;;;;;;;;18.30;84.50;;;;;;5072664;28;19908;-71
2021/11/16 05:15:37;;;;;;;;;;;18.30;86.10;;;;;;5073049;28;19908;-71
2021/11/16 05:18:04;;;;;;;;;;;18.30;87.50;;;;;;5072716;28;20350;-71
2021/11/16 05:20:31;;;;;;;;;;;18.40;88.50;;;;;;5072666;28;19923;-72
2021/11/16 05:22:58;;;;;;;;;;;18.40;88.60;;;;;;5072596;28;19920;-72
2021/11/16 05:25:24;;;;;;;;;;;18.30;88.20;;;;;;5072656;28;19908;-72
2021/11/16 05:27:51;;;;;;;;;;;18.30;88.90;;;;;;5072392;28;20062;-72
2021/11/16 05:30:21;;;;;;;;;;;18.30;89.70;;;;;;5071419;28;19958;-72
2021/11/16 05:32:48;;;;;;;;;;;18.30;89.70;;;;;;5072511;28;20350;-70
2021/11/16 05:35:15;;;;;;;;;;;18.30;90.30;;;;;;5072336;28;19916;-70
2021/11/16 05:37:42;;;;;;;;;;;18.10;90.20;;;;;;5072567;28;19915;-70
2021/11/16 05:40:09;;;;;;;;;;;18.00;90.90;;;;;;5072404;28;20300;-72
2021/11/16 05:42:36;;;;;;;;;;;18.00;90.30;;;;;;5072527;28;20354;-71
2021/11/16 05:45:03;;;;;;;;;;;17.90;90.30;;;;;;5072416;28;19909;-70
2021/11/16 05:47:30;;;;;;;;;;;17.90;90.30;;;;;;5072241;28;20358;-71
2021/11/16 05:49:57;;;;;;;;;;;17.90;90.70;;;;;;5072017;28;19913;-70
2021/11/16 05:52:24;;;;;;;;;;;18.00;91.00;;;;;;5069601;28;19908;-72
2021/11/16 05:54:53;;;;;;;;;;;17.80;90.80;;;;;;5070453;28;19908;-71
2021/11/16 05:57:19;;;;;;;;;;;17.90;90.90;;;;;;5070245;28;19970;-72
2021/11/16 05:59:46;;;;;;;;;;;17.80;90.90;;;;;;5069768;28;20263;-69
2021/11/16 06:02:12;;;;;;;;;;;17.70;91.00;;;;;;5070075;28;19908;-69
2021/11/16 06:04:40;;;;;;;;;;;17.70;91.10;;;;;;5069788;28;19909;-68
2021/11/16 06:07:08;;;;;;;;;;;17.80;91.00;;;;;;5070305;28;19909;-70
2021/11/16 06:09:34;;;;;;;;;;;17.70;90.50;;;;;;5069969;28;19921;-70
2021/11/16 06:12:02;;;;;;;;;;;17.70;90.90;;;;;;5069715;28;19915;-71
2021/11/16 06:14:28;;;;;;;;;;;17.90;90.70;;;;;;5069773;28;19909;-70
2021/11/16 06:16:55;;;;;;;;;;;17.90;90.70;;;;;;5068897;28;19945;-71
2021/11/16 06:19:25;;;;;;;;;;;17.80;91.10;;;;;;5069816;28;19908;-70
2021/11/16 06:21:53;;;;;;;;;;;17.70;91.10;;;;;;5073243;28;19914;-71
2021/11/16 06:24:20;;;;;;;;;;;17.60;91.00;;;;;;5073800;28;19909;-70
2021/11/16 06:26:47;;;;;;;;;;;17.50;91.00;;;;;;5074035;28;20069;-70
2021/11/16 06:29:14;;;;;;;;;;;17.50;91.30;;;;;;5073191;28;20453;-70
2021/11/16 06:31:41;;;;;;;;;;;17.60;90.50;;;;;;5071940;28;20350;-70
2021/11/16 06:34:09;;;;;;;;;;;17.50;90.80;;;;;;5072081;28;20382;-71
2021/11/16 06:36:37;;;;;;;;;;;17.50;91.10;;;;;;5072359;28;20260;-70
2021/11/16 06:39:06;;;;;;;;;;;17.50;91.50;;;;;;5072637;28;20373;-71
2021/11/16 06:41:32;;;;;;;;;;;17.40;91.50;;;;;;5072855;28;19942;-69
2021/11/16 06:43:59;;;;;;;;;;;17.40;91.70;;;;;;5070368;28;19993;-69
2021/11/16 06:46:26;;;;;;;;;;;17.40;91.60;;;;;;5073800;28;19950;-69
2021/11/16 06:48:53;;;;;;;;;;;17.30;91.80;;;;;;5072998;28;19924;-70
2021/11/16 06:51:19;;;;;;;;;;;17.30;91.30;;;;;;5072838;28;19916;-70
2021/11/16 06:53:46;;;;;;;;;;;17.40;91.50;;;;;;5072442;28;19995;-69
2021/11/16 06:56:13;;;;;;;;;;;17.50;91.50;;;;;;5072283;28;19912;-71
2021/11/16 06:58:39;;;;;;;;;;;17.40;91.70;;;;;;5072126;28;19960;-68
2021/11/16 07:01:06;;;;;;;;;;;17.30;91.50;;;;;;5072926;28;19913;-70
2021/11/16 07:03:33;;;;;;;;;;;17.30;92.10;;;;;;5072818;28;20418;-67
2021/11/16 07:06:01;;;;;;;;;;;17.20;91.90;;;;;;5072757;28;19980;-69
2021/11/16 07:08:34;;;;;;;;;;;17.20;91.60;;;;;;5072715;28;19923;-70
2021/11/16 07:11:07;;;;;;;;;;;17.20;91.60;;;;;;5072913;28;19908;-69
2021/11/16 07:13:35;;;;;;;;;;;17.20;91.80;;;;;;5072343;28;20359;-70
2021/11/16 07:16:01;;;;;;;;;;;17.10;91.80;;;;;;5072649;28;19908;-67
2021/11/16 07:18:28;;;;;;;;;;;17.10;92.10;;;;;;5072492;28;19909;-69
2021/11/16 07:21:05;;;;;;;;;;;17.00;91.90;;;;;;5072562;28;20363;-70
2021/11/16 07:23:35;;;;;;;;;;;17.00;92.30;;;;;;5072751;28;20366;-69
2021/11/16 07:26:11;;;;;;;;;;;16.90;92.40;;;;;;5072343;28;20008;-70
2021/11/16 07:28:48;;;;;;;;;;;16.80;92.50;;;;;;5072032;28;19928;-70
2021/11/16 07:31:19;;;;;;;;;;;16.80;92.50;;;;;;5072307;28;19995;-71
2021/11/16 07:33:46;;;;;;;;;;;16.70;92.70;;;;;;5071761;28;20429;-66
2021/11/16 07:36:15;;;;;;;;;;;16.80;92.30;;;;;;5072116;28;19912;-71
2021/11/16 07:38:44;;;;;;;;;;;16.70;91.90;;;;;;5072471;28;19966;-69
2021/11/16 07:41:10;;;;;;;;;;;16.60;92.50;;;;;;5072389;28;19913;-70
2021/11/16 07:43:37;;;;;;;;;;;16.70;92.30;;;;;;5072015;28;19920;-71
2021/11/16 07:46:04;;;;;;;;;;;16.70;92.40;;;;;;5072346;28;19913;-69
2021/11/16 07:48:31;;;;;;;;;;;16.60;92.10;;;;;;5071656;28;19920;-70
2021/11/16 07:50:59;;;;;;;;;;;16.60;92.20;;;;;;5072159;28;19916;-68
2021/11/16 07:53:37;;;;;;;;;;;16.60;92.50;;;;;;5072118;28;19908;-71
2021/11/16 07:56:06;;;;;;;;;;;16.50;92.90;;;;;;5071987;28;19919;-70
2021/11/16 07:58:36;;;;;;;;;;;16.40;93.20;;;;;;5071396;28;19916;-70
2021/11/16 08:01:07;;;;;;;;;;;16.40;93.10;;;;;;5071947;28;19915;-71
2021/11/16 08:03:43;;;;;;;;;;;16.50;92.90;;;;;;5071622;28;19919;-72
2021/11/16 08:06:33;;;;;;;;;;;16.60;93.00;;;;;;5073179;28;19954;-73
2021/11/16 08:09:10;;;;;;;;;;;16.50;93.20;;;;;;5073756;28;20310;-71
2021/11/16 08:11:46;;;;;;;;;;;16.50;93.20;;;;;;5073971;28;19913;-71
2021/11/16 08:14:14;;;;;;;;;;;16.40;93.40;;;;;;5073375;28;19947;-71
2021/11/16 08:16:50;;;;;;;;;;;16.40;93.30;;;;;;5073677;28;19915;-72
2021/11/16 08:19:22;;;;;;;;;;;16.40;93.40;;;;;;5073758;28;19908;-72
2021/11/16 08:21:55;;;;;;;;;;;16.50;93.60;;;;;;5073461;28;19909;-71
2021/11/16 08:24:22;;;;;;;;;;;16.50;93.20;;;;;;5073629;28;19908;-71
2021/11/16 08:26:50;;;;;;;;;;;16.50;92.90;;;;;;5072897;28;20354;-71
2021/11/16 08:29:28;;;;;;;;;;;16.50;93.10;;;;;;5073249;28;19943;-71
2021/11/16 08:32:02;;;;;;;;;;;16.50;93.30;;;;;;5073116;28;19997;-71
2021/11/16 08:34:30;;;;;;;;;;;16.50;93.50;;;;;;5073363;28;19908;-73
2021/11/16 08:36:57;;;;;;;;;;;16.50;93.80;;;;;;5073349;28;19909;-71
2021/11/16 08:39:43;;;;;;;;;;;16.50;93.70;;;;;;5073264;28;19908;-71
2021/11/16 08:42:10;;;;;;;;;;;16.60;93.60;;;;;;5071689;28;19969;-72
2021/11/16 08:44:46;;;;;;;;;;;16.50;93.30;;;;;;5072952;28;20011;-71
2021/11/16 08:47:13;;;;;;;;;;;16.50;93.60;;;;;;5073375;28;20003;-71
2021/11/16 08:49:41;;;;;;;;;;;16.50;93.60;;;;;;5072938;28;19978;-70
2021/11/16 08:52:16;;;;;;;;;;;16.50;93.70;;;;;;5072915;28;19908;-69
2021/11/16 08:54:53;;;;;;;;;;;16.40;93.50;;;;;;5073102;28;20437;-66
2021/11/16 08:57:20;;;;;;;;;;;16.40;93.60;;;;;;5072647;28;19908;-70
2021/11/16 08:59:47;;;;;;;;;;;16.50;93.70;;;;;;5072564;28;20293;-68
2021/11/16 09:02:17;;;;;;;;;;;16.50;93.30;;;;;;5072880;28;19919;-70
2021/11/16 09:04:44;;;;;;;;;;;16.50;93.40;;;;;;5072674;28;19913;-71
2021/11/16 09:07:18;;;;;;;;;;;16.50;93.20;;;;;;5072822;28;20286;-69
2021/11/16 09:09:55;;;;;;;;;;;16.50;93.30;;;;;;5072492;28;20060;-72
2021/11/16 09:12:31;;;;;;;;;;;16.30;93.50;;;;;;5072414;28;19908;-69
2021/11/16 09:14:58;;;;;;;;;;;16.30;93.90;;;;;;5072659;28;19908;-72
2021/11/16 09:17:25;;;;;;;;;;;16.30;93.80;;;;;;5072538;28;19913;-69
2021/11/16 09:19:51;;;;;;;;;;;16.40;93.80;;;;;;5072240;28;19916;-70
2021/11/16 09:22:19;;;;;;;;;;;16.30;93.50;;;;;;5071139;28;19936;-72
2021/11/16 09:24:49;;;;;;;;;;;16.30;93.50;;;;;;5072712;28;20418;-72
2021/11/16 09:30:00;;;;;;;;;;;16.30;93.40;;;;;;5070648;28;20385;-71
2021/11/16 09:32:29;;;;;;;;;;;16.20;92.90;;;;;;5070503;28;19992;-69
2021/11/16 09:34:58;;;;;;;;;;;16.20;93.10;;;;;;5070427;28;19912;-70
2021/11/16 09:37:27;;;;;;;;;;;16.10;93.30;;;;;;5070425;28;19965;-69
2021/11/16 09:39:56;;;;;;;;;;;16.10;93.40;;;;;;5069851;28;19908;-71
2021/11/16 09:42:29;;;;;;;;;;;16.00;93.40;;;;;;5068199;28;19909;-70
2021/11/16 09:45:04;;;;;;;;;;;16.00;93.30;;;;;;5070174;28;19913;-72
2021/11/16 09:47:35;;;;;;;;;;;16.00;93.30;;;;;;5070068;28;19961;-71
2021/11/16 09:50:07;;;;;;;;;;;16.00;93.50;;;;;;5070101;28;19923;-67
2021/11/16 09:52:46;;;;;;;;;;;16.00;93.40;;;;;;5070321;28;20362;-70
2021/11/16 09:55:17;;;;;;;;;;;16.00;93.40;;;;;;5070144;28;19931;-68
2021/11/16 09:57:46;;;;;;;;;;;15.90;93.30;;;;;;5070017;28;19919;-68
2021/11/16 10:00:13;;;;;;;;;;;15.90;93.40;;;;;;5069964;28;19927;-71
2021/11/16 10:02:45;;;;;;;;;;;15.90;93.30;;;;;;5069920;28;19908;-70
2021/11/16 10:05:22;;;;;;;;;;;15.80;93.20;;;;;;5069983;28;19915;-73
2021/11/16 10:07:50;;;;;;;;;;;15.90;93.50;;;;;;5069683;28;19917;-70
2021/11/16 10:10:18;;;;;;;;;;;15.90;93.30;;;;;;5069793;28;19989;-71
2021/11/16 10:12:44;;;;;;;;;;;15.90;93.40;;;;;;5070059;28;19917;-66
2021/11/16 10:15:14;;;;;;;;;;;15.80;93.10;;;;;;5070038;28;19913;-71
2021/11/16 10:17:41;;;;;;;;;;;15.80;93.20;;;;;;5069805;28;19908;-71
2021/11/16 10:20:09;;;;;;;;;;;15.80;93.30;;;;;;5069885;28;19918;-71
2021/11/16 10:22:35;;;;;;;;;;;15.80;93.40;;;;;;5069509;28;19912;-70
2021/11/16 10:25:21;;;;;;;;;;;15.80;92.60;;;;;;5069883;28;19958;-71
2021/11/16 10:27:50;;;;;;;;;;;15.70;92.40;;;;;;5069596;28;19923;-70
2021/11/16 10:30:19;;;;;;;;;;;15.70;92.60;;;;;;5069877;28;20362;-71
2021/11/16 10:33:06;;;;;;;;;;;15.70;92.60;;;;;;5069596;28;19966;-73
2021/11/16 10:35:32;;;;;;;;;;;15.70;92.70;;;;;;5069508;28;19912;-71
2021/11/16 10:37:59;;;;;;;;;;;15.70;92.40;;;;;;5069655;28;19913;-71
2021/11/16 10:40:27;;;;;;;;;;;15.70;92.30;;;;;;5069714;28;19908;-70
2021/11/16 10:42:58;;;;;;;;;;;15.70;92.40;;;;;;5069678;28;20423;-70
2021/11/16 10:45:26;;;;;;;;;;;15.70;92.50;;;;;;5069589;28;20016;-71
2021/11/16 10:47:57;;;;;;;;;;;15.60;92.70;;;;;;5068913;28;19916;-70
2021/11/16 10:50:29;;;;;;;;;;;15.60;92.60;;;;;;5069726;28;19908;-68
2021/11/16 10:53:11;;;;;;;;;;;15.60;92.80;;;;;;5069438;28;19923;-70
2021/11/16 10:55:39;;;;;;;;;;;15.60;92.90;;;;;;5069653;28;20267;-70
2021/11/16 10:58:06;;;;;;;;;;;15.70;92.80;;;;;;5069207;28;19915;-71
2021/11/16 11:00:35;;;;;;;;;;;15.60;92.80;;;;;;5069392;28;20302;-70
2021/11/16 11:03:19;;;;;;;;;;;15.70;92.70;;;;;;5068887;28;20281;-72
2021/11/16 11:05:46;;;;;;;;;;;15.70;92.70;;;;;;5070431;28;19958;-70
2021/11/16 11:08:27;;;;;;;;;;;15.70;92.60;;;;;;5071555;28;20362;-71
2021/11/16 11:10:54;;;;;;;;;;;15.60;92.60;;;;;;5072806;28;19916;-71
2021/11/16 11:13:26;;;;;;;;;;;15.60;92.60;;;;;;5072752;28;19908;-70
2021/11/16 11:15:53;;;;;;;;;;;15.60;92.70;;;;;;5072031;28;19952;-69
2021/11/16 11:18:29;;;;;;;;;;;15.60;92.90;;;;;;5072469;28;19908;-71
2021/11/16 11:20:57;;;;;;;;;;;15.60;93.00;;;;;;5072531;28;19926;-71
2021/11/16 11:23:28;;;;;;;;;;;15.60;93.20;;;;;;5072060;28;19970;-70
2021/11/16 11:26:17;;;;;;;;;;;15.60;93.30;;;;;;5072152;28;19912;-72
2021/11/16 11:28:54;;;;;;;;;;;15.50;93.40;;;;;;5072102;28;19916;-70
2021/11/16 11:31:24;;;;;;;;;;;15.50;93.50;;;;;;5072311;28;19951;-70
2021/11/16 11:33:51;;;;;;;;;;;15.50;93.60;;;;;;5071931;28;19909;-72
2021/11/16 11:36:22;;;;;;;;;;;15.50;93.60;;;;;;5071916;28;19916;-72
2021/11/16 11:38:49;;;;;;;;;;;15.50;93.80;;;;;;5072470;28;20271;-72
2021/11/16 11:41:15;;;;;;;;;;;15.60;93.80;;;;;;5072541;28;19915;-70
2021/11/16 11:43:42;;;;;;;;;;;15.50;93.80;;;;;;5072132;28;19912;-71
2021/11/16 11:46:09;;;;;;;;;;;15.50;94.00;;;;;;5071712;28;19909;-71
2021/11/16 11:48:36;;;;;;;;;;;15.50;94.00;;;;;;5071851;28;20012;-72
2021/11/16 11:51:10;;;;;;;;;;;15.50;94.00;;;;;;5071794;28;19912;-70
2021/11/16 11:53:38;;;;;;;;;;;15.50;94.10;;;;;;5071605;28;20003;-70
2021/11/16 11:56:06;;;;;;;;;;;15.50;94.20;;;;;;5071689;28;19913;-71
2021/11/16 11:58:35;;;;;;;;;;;15.50;94.20;;;;;;5071654;28;20027;-69
2021/11/16 12:01:07;;;;;;;;;;;15.50;94.60;;;;;;5071971;28;19912;-71
2021/11/16 12:03:34;;;;;;;;;;;15.40;94.40;;;;;;5071657;28;19908;-69
2021/11/16 12:06:00;;;;;;;;;;;15.40;94.60;;;;;;5070928;28;19913;-71
2021/11/16 12:08:29;;;;;;;;;;;15.40;94.50;;;;;;5071550;28;20304;-71
2021/11/16 12:10:56;;;;;;;;;;;15.40;94.50;;;;;;5071616;28;19919;-72
2021/11/16 12:13:26;;;;;;;;;;;15.40;94.60;;;;;;5071809;28;19966;-72
2021/11/16 12:16:02;;;;;;;;;;;15.40;94.50;;;;;;5071684;28;19912;-68
2021/11/16 12:18:42;;;;;;;;;;;15.40;94.70;;;;;;5070278;28;20406;-70
2021/11/16 12:21:29;;;;;;;;;;;15.40;95.00;;;;;;5070663;28;19935;-68
2021/11/16 12:24:00;;;;;;;;;;;15.40;95.20;;;;;;5069788;28;19987;-69
2021/11/16 12:26:28;;;;;;;;;;;15.50;95.10;;;;;;5071754;28;19916;-70
2021/11/16 12:29:11;;;;;;;;;;;15.40;95.20;;;;;;5086871;28;19960;-70
2021/11/16 12:31:38;;;;;;;;;;;15.50;95.30;;;;;;5071291;28;19917;-69
2021/11/16 12:34:04;;;;;;;;;;;15.50;95.30;;;;;;5070842;28;19914;-70
2021/11/16 12:36:34;;;;;;;;;;;15.50;95.40;;;;;;5071504;28;19996;-71
2021/11/16 12:39:17;;;;;;;;;;;15.50;95.40;;;;;;5071875;28;19908;-70
2021/11/16 12:41:45;;;;;;;;;;;15.50;95.50;;;;;;5071637;28;19908;-71
2021/11/16 12:44:17;;;;;;;;;;;15.50;95.50;;;;;;5071372;28;19908;-66
2021/11/16 12:46:45;;;;;;;;;;;15.40;95.60;;;;;;5074786;28;19914;-70
2021/11/16 12:49:30;;;;;;;;;;;15.40;95.70;;;;;;5072019;28;19950;-65
2021/11/16 12:51:57;;;;;;;;;;;15.50;96.00;;;;;;5071618;28;19935;-66
2021/11/16 12:54:24;;;;;;;;;;;15.50;95.90;;;;;;5071542;28;19913;-66
2021/11/16 12:56:54;;;;;;;;;;;15.50;95.90;;;;;;5071518;28;20358;-65
2021/11/16 12:59:26;;;;;;;;;;;15.50;96.00;;;;;;5070641;28;20015;-67
2021/11/16 13:01:56;;;;;;;;;;;15.60;96.00;;;;;;5070889;28;19908;-65
2021/11/16 13:04:38;;;;;;;;;;;15.60;96.00;;;;;;5070988;28;19963;-66
2021/11/16 13:07:23;;;;;;;;;;;15.60;95.60;;;;;;5071157;28;19909;-66
2021/11/16 13:09:51;;;;;;;;;;;15.60;95.70;;;;;;5070610;28;20388;-66
2021/11/16 13:12:33;;;;;;;;;;;15.70;95.60;;;;;;5070581;28;19917;-66
2021/11/16 13:15:01;;;;;;;;;;;15.60;95.30;;;;;;5070868;28;20001;-66
2021/11/16 13:17:42;;;;;;;;;;;15.60;95.20;;;;;;5070440;28;20018;-65
2021/11/16 13:20:10;;;;;;;;;;;15.70;95.40;;;;;;5070412;28;19913;-66
2021/11/16 13:22:50;;;;;;;;;;;15.70;95.40;;;;;;5086284;28;19943;-65
2021/11/16 13:25:37;;;;;;;;;;;15.70;95.30;;;;;;5070254;28;20029;-66
2021/11/16 13:28:04;;;;;;;;;;;15.70;95.30;;;;;;5069837;28;19923;-67
2021/11/16 13:30:31;;;;;;;;;;;15.70;95.10;;;;;;5070602;28;19915;-65
2021/11/16 13:32:58;;;;;;;;;;;15.70;95.20;;;;;;5070536;28;19923;-65
2021/11/16 13:35:25;;;;;;;;;;;15.70;95.60;;;;;;5070335;28;19985;-66
2021/11/16 13:37:53;;;;;;;;;;;15.70;96.00;;;;;;5069858;28;20424;-66
2021/11/16 13:40:25;;;;;;;;;;;15.70;95.90;;;;;;5070374;28;19909;-66
2021/11/16 13:43:01;;;;;;;;;;;15.70;95.80;;;;;;5070351;28;19912;-65
2021/11/16 13:45:28;;;;;;;;;;;15.70;95.80;;;;;;5070450;28;19942;-66
2021/11/16 13:47:55;;;;;;;;;;;15.60;95.70;;;;;;5069863;28;19923;-64
2021/11/16 13:50:29;;;;;;;;;;;15.50;95.60;;;;;;5070282;28;19917;-65
2021/11/16 13:52:55;;;;;;;;;;;15.50;95.70;;;;;;5070018;28;20416;-65
2021/11/16 13:55:24;;;;;;;;;;;15.40;95.70;;;;;;5070462;28;19974;-65
2021/11/16 13:57:54;;;;;;;;;;;15.50;95.90;;;;;;5069878;28;20324;-65
2021/11/16 14:00:30;;;;;;;;;;;15.50;95.90;;;;;;5070074;28;19924;-64
2021/11/16 14:03:01;;;;;;;;;;;15.50;95.90;;;;;;5069896;28;19909;-65
2021/11/16 14:05:33;;;;;;;;;;;15.50;96.10;;;;;;5068402;28;19958;-65
2021/11/16 14:08:00;;;;;;;;;;;15.50;96.20;;;;;;5069679;28;19913;-65
2021/11/16 14:10:35;;;;;;;;;;;15.50;96.20;;;;;;5070065;28;20515;-65
2021/11/16 14:13:11;;;;;;;;;;;15.50;96.10;;;;;;5070174;28;19916;-66
2021/11/16 14:15:38;;;;;;;;;;;15.40;96.40;;;;;;5069906;28;20437;-65
2021/11/16 14:18:09;;;;;;;;;;;15.40;96.40;;;;;;5069513;28;19915;-65
2021/11/16 14:20:37;;;;;;;;;;;15.40;96.80;;;;;;5070086;28;19935;-65
2021/11/16 14:23:30;;;;;;;;;;;15.40;96.80;;;;;;5069905;28;19909;-67
2021/11/16 14:25:58;;;;;;;;;;;15.40;96.90;;;;;;5067902;28;20354;-65
2021/11/16 14:28:27;;;;;;;;;;;15.40;97.00;;;;;;5069860;28;20450;-65
2021/11/16 14:30:54;;;;;;;;;;;15.40;97.00;;;;;;5069416;28;19992;-66
2021/11/16 14:33:21;;;;;;;;;;;15.40;96.90;;;;;;5069804;28;19944;-65
2021/11/16 14:35:53;;;;;;;;;;;15.30;96.90;;;;;;5069681;28;19913;-65
2021/11/16 14:38:28;;;;;;;;;;;15.30;96.90;;;;;;5070029;28;19913;-65
2021/11/16 14:40:56;;;;;;;;;;;15.20;96.80;;;;;;5070935;28;19918;-65
2021/11/16 14:43:24;;;;;;;;;;;15.30;96.90;;;;;;5073338;28;19920;-66
2021/11/16 14:45:52;;;;;;;;;;;15.20;96.90;;;;;;5073560;28;19912;-65
2021/11/16 14:48:34;;;;;;;;;;;15.20;97.00;;;;;;5073477;28;19955;-65